WetterOnline ( https://www.wetteronline.de )

Wetter aktuell Weiden

Aktuelles Wetter: Weiden (439m)

6-stündlich | Neueste Meldungen
Ortszeit Temperatur Wetter
So, 21.04. 14:00 19.3° C wolkenlos
So, 21.04. 8:00 6.7° C wolkenlos
So, 21.04. 2:00 8.8° C wolkenlos
Sa, 20.04. 20:00 18.4° C fast wolkenlos
Sa, 20.04. 14:00 20.1° C wolkenlos
Sa, 20.04. 8:00 7.9° C wolkenlos
Sa, 20.04. 2:00 12.0° C wolkenlos
Fr, 19.04. 20:00 17.7° C wolkenlos
Ortszeit Temperatur Wetter
So, 21.04. 16:30 21.2° C wolkig
So, 21.04. 16:10 20.4° C wolkig
So, 21.04. 16:00 20.2° C leicht bewölkt
So, 21.04. 15:50 20.2° C leicht bewölkt
So, 21.04. 15:40 20.6° C leicht bewölkt
So, 21.04. 15:30 20.4° C wolkenlos
So, 21.04. 15:00 20.2° C wolkenlos
So, 21.04. 14:30 19.9° C wolkenlos
So, 21.04. 14:00 19.3° C wolkenlos
So, 21.04. 13:30 19.7° C wolkenlos
So, 21.04. 13:00 18.8° C wolkenlos
Ortszeit Relative Feuchte Sichtweite
So, 21.04. 14:00 27% 20 km
So, 21.04. 8:00 61% 29 km
So, 21.04. 2:00 55% 30 km
Sa, 20.04. 20:00 22% 40 km
Sa, 20.04. 14:00 22% 15 km
Sa, 20.04. 8:00 60% 25 km
Sa, 20.04. 2:00 43% 35 km
Fr, 19.04. 20:00 30% 70 km
Ortszeit Relative Feuchte Sichtweite
So, 21.04. 16:30 24% 28 km
So, 21.04. 16:10 21% -
So, 21.04. 16:00 22% 18 km
So, 21.04. 15:50 22% -
So, 21.04. 15:40 24% -
So, 21.04. 15:30 23% 26 km
So, 21.04. 15:00 26% 25 km
So, 21.04. 14:30 27% 22 km
So, 21.04. 14:00 27% 20 km
So, 21.04. 13:30 28% 24 km
So, 21.04. 13:00 27% 26 km
Ortszeit Niederschlagsmenge Niederschlagsart
So, 21.04. 14:00 0.0 l/m2 in 6 Std. -
So, 21.04. 8:00 0.0 l/m2 in 12 Std. -
So, 21.04. 2:00 0.0 l/m2 in 6 Std. -
Sa, 20.04. 20:00 0.0 l/m2 in 12 Std. -
Sa, 20.04. 14:00 0.1 l/m2 in 6 Std. -
Sa, 20.04. 8:00 0.0 l/m2 in 12 Std. -
Sa, 20.04. 2:00 0.0 l/m2 in 6 Std. -
Fr, 19.04. 20:00 0.0 l/m2 in 12 Std. -
Ortszeit Niederschlagsmenge Niederschlagsart
So, 21.04. 16:30 0.0 l/m2 in 1 Std. -
So, 21.04. 16:10 keine Meldung -
So, 21.04. 16:00 0.0 l/m2 in 1 Std. -
So, 21.04. 15:50 keine Meldung -
So, 21.04. 15:40 keine Meldung -
So, 21.04. 15:30 0.0 l/m2 in 1 Std. -
So, 21.04. 15:00 0.0 l/m2 in 1 Std. -
So, 21.04. 14:30 0.0 l/m2 in 1 Std. -
So, 21.04. 14:00 0.0 l/m2 in 1 Std. -
So, 21.04. 13:30 0.0 l/m2 in 1 Std. -
So, 21.04. 13:00 0.0 l/m2 in 1 Std. -
Ortszeit Stärke Spitze Richtung
km/h Bft. km/h Grad Sektor
So, 21.04. 14:00 15 3 39 90° O
So, 21.04. 8:00 4 1 11 330° NW
So, 21.04. 2:00 4 1 18 30° NO
Sa, 20.04. 20:00 7 2 35 90° O
Sa, 20.04. 14:00 14 3 36 50° NO
Sa, 20.04. 8:00 4 1 11 60° NO
Sa, 20.04. 2:00 7 2 36 290° W
Fr, 19.04. 20:00 11 2 47 80° O
Ortszeit Stärke Spitze Richtung
km/h Bft. km/h Grad Sektor
So, 21.04. 16:30 7 2 25 100° O
So, 21.04. 16:10 11 2 - 50° NO
So, 21.04. 16:00 9 2 28 100° O
So, 21.04. 15:50 9 2 - 100° O
So, 21.04. 15:40 11 2 - 60° NO
So, 21.04. 15:30 11 2 29 100° O
So, 21.04. 15:00 18 3 32 50° NO
So, 21.04. 14:30 15 3 30 80° O
So, 21.04. 14:00 15 3 39 90° O
So, 21.04. 13:30 9 2 22 60° NO
So, 21.04. 13:00 13 3 33 110° O
Ortszeit Untergrenze Bedeckung Gattung
total tief tief mittel hoch
So, 21.04. 14:00 - 0/8 0/8 - - -
So, 21.04. 8:00 - 0/8 0/8 - - -
So, 21.04. 2:00 - 0/8 0/8 - - -
Sa, 20.04. 20:00 7500 m 1/8 0/8 - - -
Sa, 20.04. 14:00 - 0/8 0/8 - - -
Sa, 20.04. 8:00 - 0/8 0/8 - - -
Sa, 20.04. 2:00 - 0/8 0/8 - - -
Fr, 19.04. 20:00 - 0/8 0/8 - - -
Ortszeit Bedeckungsgrad in Achtel und Wolkenuntergrenze
So, 21.04. 16:30 8(10500m)
So, 21.04. 16:10 8(10500m)
So, 21.04. 16:00 6(10500m)
So, 21.04. 15:50 6(10500m)
So, 21.04. 15:40 4(10500m)
So, 21.04. 15:30 keine Wolken
So, 21.04. 15:00 keine Wolken
So, 21.04. 14:30 keine Wolken
So, 21.04. 14:00 keine Wolken
So, 21.04. 13:30 keine Wolken
So, 21.04. 13:00 keine Wolken
Ortszeit Luftdruck NN (hPa) Tendenz (hPa in 3 Std.)
So, 21.04. 14:00 1020 - 1,7
So, 21.04. 8:00 1025 - 0,3
So, 21.04. 2:00 1026 - 0,7
Sa, 20.04. 20:00 1024 - 1,2
Sa, 20.04. 14:00 1027 - 1,1
Sa, 20.04. 8:00 1031 + 0,4
Sa, 20.04. 2:00 1030 + 0,3
Fr, 19.04. 20:00 1028 0,0
Ortszeit Luftdruck NN (hPa) Tendenz (hPa in 3 Std.)
So, 21.04. 16:30 1018 - 2,0
So, 21.04. 16:10 1018 keine Meldung
So, 21.04. 16:00 1018 - 2,0
So, 21.04. 15:50 1018 keine Meldung
So, 21.04. 15:40 1018 keine Meldung
So, 21.04. 15:30 1019 - 1,9
So, 21.04. 15:00 1019 - 1,9
So, 21.04. 14:30 1020 - 1,7
So, 21.04. 14:00 1020 - 1,7
So, 21.04. 13:30 1020 - 1,6
So, 21.04. 13:00 1021 - 1,6
Ortszeit Schneehöhe (cm)
So, 21.04. 14:00 0
So, 21.04. 8:00 0
So, 21.04. 2:00 0
Sa, 20.04. 20:00 0
Sa, 20.04. 14:00 0
Sa, 20.04. 8:00 0
Sa, 20.04. 2:00 0
Fr, 19.04. 20:00 0
Ortszeit Schneehöhe (cm)
So, 21.04. 16:30 0
So, 21.04. 16:10 0
So, 21.04. 16:00 0
So, 21.04. 15:50 0
So, 21.04. 15:40 0
So, 21.04. 15:30 0
So, 21.04. 15:00 0
So, 21.04. 14:30 0
So, 21.04. 14:00 0
So, 21.04. 13:30 0
So, 21.04. 13:00 0
Link zu dieser Seite / Seite empfehlen

Das Wetter in ...